Flight Track Log - Related Links

Times and Time Zones

All times are in EDT time to prevent confusion due to time zone crossing. See the N1926A flight status page for this flight to view local times or setup timezone preferences in your user account.

Time Position Orientation Groundspeed Altitude Reporting Facility
EDT Latitude Longitude Course Direction KTS MPH feet Rate Location/Type
Thu 05:51:44 PM 30.7064 -88.0169 36° Northeast 174 200 4,400  Level Houston Center
Thu 05:52:46 PM 30.7406 -87.9789 44° Northeast 172 198 6,300 1,839 Climbing Houston Center
Thu 05:53:48 PM 30.7789 -87.9392 42° Northeast 181 208 8,200 1,790 Climbing Houston Center
Thu 05:54:50 PM 30.8206 -87.9061 34° Northeast 183 211 10,000 1,742 Climbing Houston Center
Thu 05:55:52 PM 30.8628 -87.8694 37° Northeast 188 216 11,800 1,452 Climbing Houston Center
Thu 05:56:00 PM 30.8965 -87.8112 36° Northeast  Level FlightAware Approximate
Thu 05:56:54 PM 30.9111 -87.8167 43° Northeast 197 227 13,000  Level Houston Center
Thu 05:57:00 PM 30.9460 -87.7700 36° Northeast  Level FlightAware Approximate
Thu 05:57:56 PM 30.9622 -87.7644 41° Northeast 230 265 12,900  Level Houston Center
Thu 05:58:58 PM 31.0197 -87.7122 38° Northeast 256 295 12,900  Level Houston Center
Thu 06:00:00 PM 31.0792 -87.6644 35° Northeast 262 302 12,900  Level Houston Center
Thu 06:01:03 PM 31.1386 -87.6161 35° Northeast 264 304 12,900  Level Houston Center
Thu 06:02:05 PM 31.2122 -87.5600 33° Northeast 266 306 12,900  Level Houston Center
Thu 06:03:07 PM 31.2667 -87.5028 42° Northeast 266 306 12,900  Level Houston Center
Thu 06:04:09 PM 31.3222 -87.4469 41° Northeast 265 305 12,900  Level Houston Center
Thu 06:05:11 PM 31.3811 -87.3958 37° Northeast 266 306 12,900  Level Houston Center
Thu 06:06:13 PM 31.4478 -87.3583 26° Northeast 265 305 12,900 48 Level Houston Center
Thu 06:07:15 PM 31.5175 -87.2964 37° Northeast 278 320 13,000  Climbing Houston Center
Thu 06:08:17 PM 31.5644 -87.2300 50° Northeast 269 310 12,900 -48 Descending Houston Center
Thu 06:09:19 PM 31.6158 -87.1700 45° Northeast 262 302 12,900 -48 Level Houston Center
Thu 06:10:21 PM 31.6675 -87.1100 45° Northeast 262 302 12,800 -347 Descending Houston Center
Thu 06:11:20 PM 31.7289 -87.0444 42° Northeast 266 306 12,200 -454 Descending Atlanta Center
Thu 06:12:20 PM 31.7739 -86.9972 42° Northeast 266 306 11,900 -350 Descending Atlanta Center
Thu 06:13:20 PM 31.8339 -86.9306 43° Northeast 266 306 11,500 -400 Descending Atlanta Center
Thu 06:14:20 PM 31.8875 -86.8714 43° Northeast 266 306 11,100 -400 Descending Atlanta Center
Thu 06:15:20 PM 31.9389 -86.8117 45° Northeast 266 306 10,700 -650 Descending Atlanta Center
Thu 06:16:20 PM 31.9925 -86.7472 46° Northeast 266 306 9,800 -800 Descending Atlanta Center
Thu 06:17:20 PM 32.0458 -86.6875 43° Northeast 266 306 9,100 -400 Descending Atlanta Center
Thu 06:18:20 PM 32.1031 -86.6453 32° Northeast 254 292 9,000 -50 Descending Atlanta Center
Thu 06:19:20 PM 32.1719 -86.6519 355° North 228 262 9,000 -650 Level Atlanta Center
Thu 06:20:20 PM 32.2297 -86.6758 341° North 218 251 7,700 -1,450 Descending Atlanta Center
Thu 06:21:20 PM 32.2897 -86.7094 335° Northwest 210 242 6,100 -1,900 Descending Atlanta Center
Thu 06:22:20 PM 32.3281 -86.6664 43° Northeast 189 217 3,900 -1,750 Descending Atlanta Center
Thu 06:23:20 PM 32.3192 -86.5975 99° East 144 166 2,600 -850 Descending Atlanta Center
Thu 06:24:20 PM 32.3139 -86.5456 97° East 149 171 2,200 -400 Descending Atlanta Center
Thu 06:26:00 PM 32.2354 -86.4479 40° Northeast  Level FlightAware Approximate
Thu 06:33:00 PM 32.3000 -86.3833 40° Northeast  Level FlightAware Approximate
Thu 06:34:00 PM 32.3006 -86.3940 40° Northeast  Level Estimated
Thu 06:35:00 PM 32.3006 -86.3940 40° Northeast  Level Estimated

Login

Don't have an account? Register now (free) for customized features, flight alerts, and more!